Data for 05/31/2013

Time Sea-Level Adjusted Pressure Absolute Pressure Temperature Relative Humidity Dew Point   
(mb) (inHg) (mb) (inHg) (C) (F) (%) (C) (F)
00:05 1017 30.03 847 25.01 7 44.6 59 -0.3 31.4
00:10 1017 30.03 847 25.01 7 44.6 60 -0.3 31.5
00:15 1017 30.03 847 25.01 7 44.6 59 -0.4 31.4
00:20 1017 30.03 847 25.01 7.1 44.7 59 -0.3 31.5
00:25 1018 30.06 847 25.01 7.1 44.8 58 -0.5 31.1
00:30 1018 30.06 847 25.01 7.1 44.8 58 -0.6 31
00:35 1018 30.06 847 25.01 7.2 45 58 -0.5 31
00:40 1018 30.06 847 25.01 7.2 45 58 -0.4 31.2
00:45 1018 30.06 847 25.01 7.2 44.9 59 -0.3 31.4
00:50 1018 30.06 847 25.01 7.1 44.8 59 -0.2 31.6
00:55 1018 30.06 847 25.01 7.1 44.7 59 -0.3 31.4
01:00 1018 30.06 847 25.01 7 44.6 60 -0.3 31.4
01:05 1018 30.06 847 25.01 7 44.6 58 -0.7 30.7
01:10 1018 30.06 847 25.01 7.1 44.7 58 -0.7 30.8
01:15 1018 30.06 847 25.01 7.1 44.9 57 -0.8 30.6
01:20 1018 30.06 847 25.01 7.1 44.8 58 -0.6 31
01:25 1018 30.06 847 25.01 7.1 44.7 59 -0.4 31.2
01:30 1018 30.06 847 25.01 7 44.5 59 -0.5 31.1
01:35 1018 30.06 847 25.01 6.9 44.5 59 -0.6 31
01:40 1018 30.06 847 25.01 6.9 44.4 59 -0.5 31.1
01:45 1018 30.06 847 25.01 6.8 44.3 60 -0.3 31.5
01:50 1018 30.06 847 25.01 6.7 44 63 0 32.1
01:55 1018 30.06 847 25.01 6.5 43.7 63 -0 32
02:00 1018 30.06 847 25.01 6.5 43.7 64 0.1 32.2
02:05 1018 30.06 847 25.01 6.5 43.6 64 0.1 32.3
02:10 1018 30.06 847 25.01 6.4 43.5 65 0.4 32.6
02:15 1018 30.06 847 25.01 6.2 43.2 66 0.3 32.6
02:20 1018 30.06 847 25.01 6.1 43 66 0.2 32.3
02:25 1018 30.06 847 25.01 6.2 43.2 64 0 32.1
02:30 1018 30.06 847 25.01 6.3 43.3 65 0.1 32.2
02:35 1018 30.06 847 25.01 6.3 43.3 64 0 32
02:40 1018 30.06 847 25.01 6.3 43.3 64 -0 32
02:45 1018 30.06 847 25.01 6.3 43.3 64 -0.1 31.9
02:50 1018 30.06 848 25.04 6.3 43.3 63 -0.1 31.7
02:55 1018 30.06 848 25.04 6.3 43.3 63 -0.3 31.4
03:00 1018 30.06 848 25.04 6.2 43.2 63 -0.3 31.4
03:05 1018 30.06 848 25.04 6.2 43.2 63 -0.3 31.4
03:10 1018 30.06 848 25.04 6.2 43.1 64 -0.2 31.6
03:15 1018 30.06 848 25.04 6.1 42.9 65 -0.1 31.8
03:20 1019 30.09 848 25.04 6 42.7 65 -0 31.9
03:25 1019 30.09 848 25.04 5.9 42.5 65 -0.1 31.8
03:30 1019 30.09 848 25.04 5.8 42.5 66 -0.1 31.8
03:35 1018 30.06 848 25.04 5.8 42.5 65 -0.3 31.4
03:40 1019 30.09 848 25.04 5.9 42.6 64 -0.4 31.3
03:45 1019 30.09 848 25.04 6 42.8 63 -0.6 31
03:50 1019 30.09 848 25.04 6.1 43 62 -0.6 31
03:55 1019 30.09 848 25.04 6.1 43 62 -0.5 31.1
04:00 1019 30.09 848 25.04 6.1 43 63 -0.5 31.1
04:05 1019 30.09 848 25.04 6.1 43 62 -0.5 31.1
04:10 1019 30.09 848 25.04 6.1 43 63 -0.4 31.3
04:15 1019 30.09 848 25.04 6.1 43 62 -0.7 30.8
04:20 1019 30.09 848 25.04 6.1 43 62 -0.7 30.7
04:25 1019 30.09 848 25.04 6.1 42.9 61 -0.8 30.6
04:30 1019 30.09 848 25.04 6 42.9 61 -0.8 30.6
04:35 1019 30.09 848 25.04 6 42.7 62 -0.8 30.5
04:40 1019 30.09 848 25.04 5.9 42.7 62 -0.9 30.4
04:45 1019 30.09 848 25.04 5.9 42.6 61 -1 30.2
04:50 1019 30.09 848 25.04 5.9 42.6 61 -1 30.1
04:55 1019 30.09 848 25.04 5.9 42.7 60 -1.2 29.9
05:00 1019 30.09 848 25.04 5.9 42.7 60 -1.3 29.7
05:05 1019 30.09 848 25.04 5.9 42.6 60 -1.2 29.9
05:10 1019 30.09 848 25.04 5.9 42.6 60 -1.1 30
05:15 1019 30.09 848 25.04 5.9 42.6 60 -1.2 29.8
05:20 1019 30.09 848 25.04 5.9 42.6 60 -1.2 29.8
05:25 1019 30.09 849 25.07 5.9 42.6 60 -1.3 29.7
05:30 1019 30.09 849 25.07 5.8 42.5 60 -1.4 29.6
05:35 1019 30.09 849 25.07 5.8 42.5 60 -1.4 29.5
05:40 1019 30.09 849 25.07 5.8 42.5 60 -1.3 29.6
05:45 1019 30.09 849 25.07 5.8 42.5 60 -1.3 29.7
05:50 1019 30.09 849 25.07 5.8 42.5 59 -1.5 29.3
05:55 1019 30.09 849 25.07 5.9 42.6 59 -1.6 29.1
06:00 1019 30.09 849 25.07 5.9 42.6 58 -1.7 29
06:05 1020 30.12 849 25.07 5.9 42.7 58 -1.7 28.9
06:10 1020 30.12 849 25.07 6 42.7 58 -1.7 28.9
06:15 1020 30.12 849 25.07 6 42.9 57 -1.8 28.8
06:20 1020 30.12 849 25.07 6.2 43.1 57 -1.7 28.9
06:25 1020 30.12 849 25.07 6.2 43.2 56 -1.8 28.8
06:30 1020 30.12 849 25.07 6.3 43.3 57 -1.7 29
06:35 1020 30.12 849 25.07 6.3 43.3 57 -1.7 29
06:40 1020 30.12 849 25.07 6.3 43.4 57 -1.6 29
06:45 1020 30.12 849 25.07 6.4 43.5 57 -1.6 29.2
06:50 1020 30.12 849 25.07 6.4 43.6 57 -1.5 29.2
06:55 1020 30.12 849 25.07 6.5 43.7 56 -1.7 29
07:00 1020 30.12 849 25.07 6.6 43.9 55 -1.8 28.7
07:05 1020 30.12 849 25.07 6.7 44 55 -1.8 28.7
07:10 1020 30.12 849 25.07 6.7 44.1 54 -1.8 28.8
07:15 1020 30.12 849 25.07 6.8 44.3 54 -1.8 28.8
07:20 1020 30.12 849 25.07 6.8 44.3 54 -1.7 29
07:25 1020 30.12 849 25.07 6.9 44.4 54 -1.9 28.7
07:30 1020 30.12 849 25.07 6.9 44.4 54 -1.7 29
07:35 1020 30.12 849 25.07 7 44.5 53 -1.8 28.7
07:40 1020 30.12 849 25.07 7 44.6 53 -1.8 28.8
07:45 1020 30.12 849 25.07 7.1 44.7 53 -1.8 28.8
07:50 1020 30.12 849 25.07 7.1 44.8 53 -1.8 28.8
07:55 1020 30.12 850 25.1 7.1 44.8 53 -1.7 28.9
08:00 1020 30.12 850 25.1 7.2 44.9 53 -1.8 28.8
08:05 1020 30.12 850 25.1 7.2 45 53 -1.8 28.8
08:10 1021 30.15 850 25.1 7.2 45 53 -1.6 29.2
08:15 1021 30.15 850 25.1 7.3 45.1 53 -1.7 29
08:20 1021 30.15 850 25.1 7.3 45.2 54 -1.4 29.5
08:25 1021 30.15 850 25.1 7.4 45.3 53 -1.5 29.4
08:30 1021 30.15 850 25.1 7.4 45.4 54 -1.3 29.7
08:35 1021 30.15 850 25.1 7.5 45.6 54 -1.3 29.7
08:40 1021 30.15 850 25.1 7.6 45.6 54 -1.2 29.8
08:45 1021 30.15 850 25.1 7.6 45.7 53 -1.4 29.4
08:50 1021 30.15 850 25.1 7.7 45.8 51 -1.7 29
08:55 1021 30.15 850 25.1 7.7 45.9 52 -1.6 29.2
09:00 1021 30.15 850 25.1 7.7 45.9 52 -1.4 29.4
09:05 1021 30.15 850 25.1 7.8 46 52 -1.5 29.4
09:10 1021 30.15 850 25.1 7.8 46.1 52 -1.5 29.3
09:15 1021 30.15 850 25.1 7.9 46.2 52 -1.3 29.7
09:20 1021 30.15 850 25.1 7.9 46.3 53 -1 30.1
09:25 1021 30.15 850 25.1 8 46.3 53 -1.1 30.1
09:30 1021 30.15 850 25.1 8 46.3 55 -0.6 30.9
09:35 1021 30.15 850 25.1 7.9 46.3 55 -0.5 31.2
09:40 1021 30.15 850 25.1 7.9 46.2 55 -0.6 30.9
09:45 1021 30.15 850 25.1 7.9 46.2 56 -0.2 31.6
09:50 1021 30.15 850 25.1 8 46.3 57 -0.1 31.9
09:55 1021 30.15 850 25.1 8 46.3 56 -0.4 31.4
10:00 1021 30.15 850 25.1 7.9 46.2 57 -0.1 31.9
10:05 1021 30.15 851 25.13 7.9 46.2 58 0.3 32.5
10:10 1021 30.15 851 25.13 7.8 46 61 0.7 33.3
10:15 1021 30.15 851 25.13 7.8 46 61 0.9 33.5
10:20 1021 30.15 851 25.13 7.7 45.9 62 0.9 33.6
10:25 1022 30.18 851 25.13 7.7 45.9 62 0.9 33.5
10:30 1022 30.18 851 25.13 7.7 45.9 61 0.7 33.3
10:35 1022 30.18 851 25.13 7.8 46 60 0.5 32.9
10:40 1022 30.18 851 25.13 7.9 46.2 60 0.7 33.2
10:45 1022 30.18 851 25.13 8 46.3 60 0.7 33.3
10:50 1022 30.18 851 25.13 8 46.4 59 0.6 33.1
10:55 1022 30.18 851 25.13 8 46.4 59 0.5 33
11:00 1022 30.18 851 25.13 8 46.4 60 0.7 33.3
11:05 1022 30.18 851 25.13 8.1 46.5 60 0.8 33.5
11:10 1022 30.18 851 25.13 8.1 46.7 59 0.7 33.3
11:15 1022 30.18 851 25.13 8.2 46.7 59 0.6 33.1
11:20 1022 30.18 851 25.13 8.1 46.6 59 0.7 33.2
11:25 1022 30.18 851 25.13 8.2 46.7 59 0.6 33.2
11:30 1022 30.18 851 25.13 8.2 46.7 60 0.9 33.6
11:35 1022 30.18 851 25.13 8.1 46.6 61 1.1 34
11:40 1022 30.18 851 25.13 8.2 46.8 62 1.3 34.4
11:45 1022 30.18 851 25.13 8.3 46.9 60 1.1 34
11:50 1022 30.18 851 25.13 8.3 47 60 1.1 34.1
11:55 1022 30.18 851 25.13 8.5 47.2 60 1.1 33.9
12:00 1022 30.18 851 25.13 8.6 47.5 59 1 33.9
12:05 1022 30.18 851 25.13 8.8 47.8 57 0.9 33.6
12:10 1022 30.18 851 25.13 8.9 48 58 1.1 34
12:15 1022 30.18 852 25.16 8.9 48 57 0.9 33.7
12:20 1022 30.18 852 25.16 8.9 48.1 57 0.9 33.7
12:25 1022 30.18 852 25.16 9 48.2 56 0.8 33.5
12:30 1022 30.18 852 25.16 9 48.2 56 0.6 33.1
12:35 1022 30.18 852 25.16 9.1 48.4 55 0.6 33
12:40 1022 30.18 852 25.16 9.1 48.3 56 0.9 33.6
12:45 1023 30.21 852 25.16 9 48.3 58 1.3 34.3
12:50 1023 30.21 852 25.16 9 48.2 58 1.2 34.1
12:55 1023 30.21 852 25.16 9.2 48.5 58 1.3 34.3
13:00 1023 30.21 852 25.16 9.4 48.9 55 0.9 33.6
13:05 1023 30.21 852 25.16 9.3 48.7 55 0.8 33.5
13:10 1023 30.21 852 25.16 9.3 48.7 56 1 33.7
13:15 1023 30.21 852 25.16 9.2 48.6 56 0.9 33.6
13:20 1023 30.21 852 25.16 9.2 48.6 56 1 33.7
13:25 1023 30.21 852 25.16 9.3 48.8 56 1 33.8
13:30 1023 30.21 852 25.16 9.3 48.8 55 0.8 33.4
13:35 1023 30.21 852 25.16 9.3 48.7 55 0.8 33.4
13:40 1023 30.21 852 25.16 9.3 48.7 55 0.8 33.4
13:45 1023 30.21 852 25.16 9.5 49 55 1 33.8
13:50 1023 30.21 852 25.16 9.5 49.1 55 0.8 33.5
13:55 1023 30.21 852 25.16 9.6 49.3 53 0.6 33.1
14:00 1023 30.21 852 25.16 9.7 49.5 54 0.8 33.5
14:05 1023 30.21 852 25.16 9.8 49.7 53 0.6 33.1
14:10 1023 30.21 852 25.16 10 49.9 50 0.1 32.1
14:15 1023 30.21 852 25.16 10 50 50 0.1 32.1
14:20 1023 30.21 852 25.16 10 50 50 0.1 32.2
14:25 1023 30.21 852 25.16 10 50.1 50 0.2 32.4
14:30 1023 30.21 852 25.16 10.2 50.3 50 0.1 32.3
14:35 1023 30.21 852 25.16 10.3 50.5 49 0.2 32.3
14:40 1023 30.21 852 25.16 10.4 50.7 50 0.4 32.7
14:45 1023 30.21 852 25.16 10.4 50.7 49 0.3 32.6
14:50 1023 30.21 852 25.16 10.5 50.8 49 0.3 32.5
14:55 1023 30.21 852 25.16 10.4 50.8 48 -0.1 31.9
15:00 1023 30.21 852 25.16 10.4 50.7 48 0 32
15:05 1023 30.21 852 25.16 10.4 50.8 49 0.2 32.3
15:10 1023 30.21 852 25.16 10.5 51 49 0.2 32.4
15:15 1023 30.21 852 25.16 10.6 51 47 -0.2 31.7
15:20 1023 30.21 853 25.19 10.5 51 48 -0.1 31.9
15:25 1023 30.21 853 25.19 10.6 51.1 47 -0.1 31.9
15:30 1023 30.21 853 25.19 10.8 51.4 48 0.2 32.4
15:35 1023 30.21 853 25.19 10.8 51.4 48 0.3 32.6
15:40 1023 30.21 853 25.19 10.9 51.6 51 1.2 34.1
15:45 1023 30.21 853 25.19 10.5 50.8 53 1.4 34.6
15:50 1024 30.24 853 25.19 10.4 50.7 53 1.3 34.4
15:55 1024 30.24 853 25.19 10.9 51.6 52 1.4 34.5
16:00 1024 30.24 853 25.19 10.8 51.5 53 1.7 35
16:05 1024 30.24 853 25.19 10.2 50.4 54 1.4 34.6
16:10 1024 30.24 853 25.19 10.7 51.3 53 1.5 34.8
16:15 1024 30.24 853 25.19 10.9 51.6 52 1.4 34.5
16:20 1024 30.24 853 25.19 10.2 50.4 54 1.4 34.5
16:25 1024 30.24 853 25.19 10.4 50.8 53 1.3 34.3
16:30 1024 30.24 853 25.19 10.5 50.9 55 1.8 35.2
16:35 1024 30.24 853 25.19 10.4 50.6 54 1.4 34.6
16:40 1024 30.24 853 25.19 10.4 50.8 53 1.4 34.4
16:45 1024 30.24 853 25.19 10.3 50.6 54 1.4 34.5
16:50 1024 30.24 853 25.19 10.2 50.3 57 2.1 35.8
16:55 1024 30.24 853 25.19 10.3 50.5 55 1.6 34.8
17:00 1024 30.24 853 25.19 10.6 51 54 1.6 34.9
17:05 1024 30.24 853 25.19 10.6 51 57 2.4 36.4
17:10 1024 30.24 853 25.19 10.6 51.1 56 2.2 36
17:15 1024 30.24 853 25.19 10.7 51.2 56 2.2 36
17:20 1024 30.24 854 25.22 10.6 51.2 56 2.3 36.1
17:25 1024 30.24 854 25.22 10.7 51.2 57 2.4 36.4
17:30 1024 30.24 854 25.22 10.7 51.2 57 2.6 36.6
17:35 1024 30.24 854 25.22 10.7 51.2 56 2.2 35.9
17:40 1024 30.24 854 25.22 10.6 51.1 58 2.7 36.8
17:45 1024 30.24 854 25.22 10.7 51.2 57 2.6 36.7
17:50 1025 30.27 854 25.22 10.7 51.3 58 2.8 37
17:55 1025 30.27 854 25.22 10.6 51.1 58 2.7 36.8
18:00 1025 30.27 854 25.22 10.6 51.1 58 2.7 36.8
18:05 1025 30.27 854 25.22 10.5 50.8 57 2.4 36.4
18:10 1025 30.27 854 25.22 10.4 50.8 57 2.4 36.3
18:15 1025 30.27 854 25.22 10.4 50.7 58 2.6 36.7
18:20 1025 30.27 854 25.22 10.3 50.5 57 2.2 35.9
18:25 1025 30.27 854 25.22 10.3 50.5 58 2.3 36.2
18:30 1025 30.27 854 25.22 10.3 50.6 57 2.3 36.2
18:35 1025 30.27 854 25.22 10.2 50.4 58 2.5 36.4
18:40 1025 30.27 854 25.22 10.1 50.3 58 2.4 36.3
18:45 1025 30.27 854 25.22 10.1 50.2 59 2.4 36.3
18:50 1025 30.27 854 25.22 10.1 50.2 58 2.3 36.1
18:55 1025 30.27 854 25.22 10.1 50.1 58 2.3 36.1
19:00 1025 30.27 854 25.22 10 50.1 59 2.4 36.3
19:05 1025 30.27 854 25.22 10 50 59 2.4 36.3
19:10 1025 30.27 854 25.22 10 50 59 2.4 36.3
19:15 1025 30.27 854 25.22 9.9 49.9 60 2.5 36.6
19:20 1025 30.27 854 25.22 9.8 49.6 60 2.6 36.6
19:25 1025 30.27 854 25.22 9.7 49.5 61 2.6 36.6
19:30 1025 30.27 854 25.22 9.7 49.4 61 2.5 36.5
19:35 1025 30.27 855 25.25 9.7 49.5 60 2.4 36.3
19:40 1025 30.27 855 25.25 9.7 49.5 60 2.5 36.4
19:45 1025 30.27 855 25.25 9.8 49.6 59 2.2 36
19:50 1025 30.27 855 25.25 9.7 49.5 60 2.4 36.2
19:55 1025 30.27 855 25.25 9.7 49.5 61 2.5 36.5
20:00 1026 30.3 855 25.25 9.7 49.4 61 2.5 36.6
20:05 1026 30.3 855 25.25 9.7 49.5 64 3.3 37.9
20:10 1026 30.3 855 25.25 9.5 49 66 3.5 38.3
20:15 1026 30.3 855 25.25 9.2 48.6 66 3.2 37.8
20:20 1026 30.3 855 25.25 9.1 48.5 67 3.5 38.2
20:25 1026 30.3 855 25.25 9.1 48.4 68 3.6 38.4
20:30 1026 30.3 855 25.25 9.1 48.4 68 3.6 38.5
20:35 1026 30.3 855 25.25 9 48.3 68 3.5 38.4
20:40 1026 30.3 855 25.25 9 48.2 68 3.5 38.4
20:45 1026 30.3 855 25.25 9.1 48.3 66 3 37.5
20:50 1026 30.3 855 25.25 9.2 48.5 67 3.4 38.2
20:55 1026 30.3 855 25.25 9.2 48.5 65 2.9 37.3
21:00 1026 30.3 855 25.25 9.2 48.6 65 3.1 37.6
21:05 1026 30.3 855 25.25 9.2 48.6 65 3 37.4
21:10 1026 30.3 855 25.25 9.2 48.6 64 2.8 37.1
21:15 1026 30.3 855 25.25 9.3 48.7 63 2.6 36.6
21:20 1026 30.3 856 25.28 9.2 48.6 63 2.5 36.5
21:25 1026 30.3 856 25.28 9.3 48.7 62 2.4 36.4
21:30 1026 30.3 856 25.28 9.3 48.7 63 2.5 36.5
21:35 1026 30.3 856 25.28 9.2 48.6 62 2.3 36.2
21:40 1026 30.3 856 25.28 9.2 48.5 63 2.5 36.4
21:45 1026 30.3 856 25.28 9.1 48.4 63 2.4 36.4
21:50 1026 30.3 856 25.28 9 48.3 63 2.3 36.2
21:55 1026 30.3 856 25.28 9 48.1 64 2.6 36.6
22:00 1026 30.3 856 25.28 8.9 48.1 63 2.4 36.3
22:05 1026 30.3 856 25.28 8.9 48 63 2.3 36.2
22:10 1026 30.3 856 25.28 8.9 48.1 63 2.3 36.2
22:15 1026 30.3 856 25.28 8.9 48 64 2.4 36.3
22:20 1026 30.3 856 25.28 8.8 47.9 64 2.5 36.4
22:25 1026 30.3 856 25.28 8.8 47.8 65 2.5 36.5
22:30 1026 30.3 856 25.28 8.7 47.6 65 2.6 36.6
22:35 1026 30.3 856 25.28 8.6 47.5 66 2.6 36.7
22:40 1026 30.3 856 25.28 8.5 47.3 67 2.7 36.8
22:45 1026 30.3 856 25.28 8.2 46.8 70 3.1 37.6
22:50 1026 30.3 856 25.28 7.9 46.3 71 3.1 37.5
22:55 1026 30.3 856 25.28 7.7 45.9 72 3 37.5
23:00 1026 30.3 856 25.28 7.6 45.7 72 2.9 37.3
23:05 1026 30.3 856 25.28 7.6 45.6 72 2.9 37.2
23:10 1026 30.3 856 25.28 7.6 45.6 74 3.2 37.7
23:15 1026 30.3 856 25.28 7.3 45.2 75 3.2 37.8
23:20 1026 30.3 856 25.28 7.2 44.9 75 3.2 37.7
23:25 1026 30.3 856 25.28 7.1 44.7 76 3.1 37.6
23:30 1026 30.3 856 25.28 6.9 44.5 76 3.1 37.5
23:35 1026 30.3 856 25.28 6.8 44.2 77 3 37.4
23:40 1026 30.3 856 25.28 6.8 44.2 75 2.7 36.8
23:45 1026 30.3 856 25.28 6.8 44.3 75 2.8 37
23:50 1026 30.3 856 25.28 6.7 44.1 76 2.8 37
23:55 1026 30.3 856 25.28 6.6 43.9 77 2.9 37.1
24:00 1026 30.3 856 25.28 6.6 43.9 78 3 37.4